This is the latest recevied weather packets stored in our database for station/object YO6KXQ-10. If no packets are shown the sender has not sent any weather packets the latest 10 day(s).
| Time | Temp. | Humidity | Pressure | Rain* | Wind** | Luminosity | Snow |
|---|---|---|---|---|---|---|---|
| 1777844291 | 17.22° C | 50% | 1022.3 hPa | - | - | - | - |
| 1777843271 | 17.22° C | 50% | 1022.3 hPa | - | - | - | - |
| 1777839190 | 18.33° C | 48% | 1022.5 hPa | - | - | - | - |
| 1777838170 | 18.33° C | 48% | 1022.4 hPa | - | - | - | - |
| 1777835109 | 18.89° C | 46% | 1022.2 hPa | - | - | - | - |
| 1777833069 | 17.78° C | 46% | 1022 hPa | - | - | - | - |
| 1777832049 | 17.78° C | 46% | 1022 hPa | - | - | - | - |
| 1777831029 | 17.78° C | 46% | 1022 hPa | - | - | - | - |
| 1777825928 | 18.33° C | 41% | 1021.9 hPa | - | - | - | - |
| 1777822867 | 18.89° C | 38% | 1022 hPa | - | - | - | - |
| 1777820827 | 18.33° C | 39% | 1022.3 hPa | - | - | - | - |
| 1777818787 | 17.78° C | 37% | 1022.5 hPa | - | - | - | - |
| 1777812666 | 16.11° C | 38% | 1023.9 hPa | - | - | - | - |
| 1777810625 | 16.11° C | 39% | 1024.2 hPa | - | - | - | - |
| 1777805525 | 15.56° C | 40% | 1025.2 hPa | - | - | - | - |
| 1777803484 | 15.56° C | 40% | 1025.6 hPa | - | - | - | - |
| 1777802464 | 15° C | 40% | 1025.7 hPa | - | - | - | - |
| 1777800424 | 15° C | 40% | 1026 hPa | - | - | - | - |
| 1777799404 | 15° C | 39% | 1026.1 hPa | - | - | - | - |
| 1777798383 | 15° C | 39% | 1026.2 hPa | - | - | - | - |
| 1777797363 | 15° C | 37% | 1026.2 hPa | - | - | - | - |
| 1777796343 | 15° C | 34% | 1026.3 hPa | - | - | - | - |
| 1777795317 | 15° C | 45% | 1026.4 hPa | - | - | - | - |
| 1777794297 | 15° C | 53% | 1026.4 hPa | - | - | - | - |
| 1777793277 | 15° C | 53% | 1026.4 hPa | - | - | - | - |
* Rain since midnight (hover to see other rain measurements)
** Current wind speed in m/s (hover to see current wind gust speed)